Weather History for KOZR - December, 2013

Change the Weather History Date:

Sunday, December 8, 2013

  Actual Average Record
Temperature  
Mean Temperature 63 °F -  
Max Temperature 76 °F 61 °F 80 °F (1998)
Min Temperature 50 °F 41 °F 23 °F (2006)
Degree Days  
Heating Degree Days 2    
Growing Degree Days 13 (Base 50)    
Moisture  
Dew Point 57 °F    
Average Humidity 94    
Maximum Humidity 100    
Minimum Humidity 44    
Precipitation  
Precipitation 0.00 in - - ()
Sea Level Pressure  
Sea Level Pressure 30.18 in    
Wind  
Wind Speed 5 mph (East)    
Max Wind Speed 9 mph    
Max Gust Speed -    
Visibility 4 miles    
Events Fog    
Averages and records for this station are not official NWS values.
T = Trace of Precipitation, MM = Missing Value Source: NWS Daily Summary

Daily Weather History Graph

Daily Weather History Graph

Search for Another Location

Airport or City:

Trip Planner

Search our weather history database for the weather conditions in past years. The results will help you decide how hot, cold, wet, or windy it might be!

Date:

Astronomy

Dec. 08, 2013 Rise Set
Actual Time 6:29 AM CST 4:40 PM CST
Civil Twilight 6:02 AM CST 5:06 PM CST
Nautical Twilight 5:32 AM CST 5:37 PM CST
Astronomical Twilight 5:03 AM CST 6:06 PM CST
Moon 11:07 AM CST (12/8) 11:09 PM CST (12/8)
Length of Visible Light 11h 03m
Length of Day
10h 10m
Waxing Crescent, 40% of the Moon is Illuminated
Dec 8
Waxing Crescent
Dec 9
First Quarter
Dec 17
Full
Dec 25
Last Quarter
Jan 1
New

Hourly Weather History & Observations

Time (CST) Temp. Dew Point Humidity Pressure Visibility Wind Dir Wind Speed Gust Speed Precip Events Conditions
12:58 AM 50.5 °F 49.8 °F 97% 30.22 in 10.0 mi NE 3.5 mph - N/A   Overcast
1:08 AM 50.0 °F 50.0 °F 100% 30.21 in 4.0 mi NE 4.6 mph - N/A   Overcast
1:13 AM 50.0 °F 50.0 °F 100% 30.21 in 2.0 mi NE 3.5 mph - N/A   Overcast
1:18 AM 50.0 °F 50.0 °F 100% 30.21 in 1.8 mi NNE 4.6 mph - N/A   Overcast
1:23 AM 50.0 °F 50.0 °F 100% 30.21 in 1.2 mi NNE 4.6 mph - N/A   Overcast
1:43 AM 50.0 °F 50.0 °F 100% 30.21 in 1.2 mi NNE 3.5 mph - N/A   Overcast
1:53 AM 50.0 °F 50.0 °F 100% 30.21 in 1.0 mi NNE 4.6 mph - N/A   Mist
1:58 AM 50.7 °F 50.2 °F 98% 30.22 in 1.0 mi NNE 3.5 mph - N/A   Mist
2:23 AM 50.0 °F 50.0 °F 100% 30.20 in 1.2 mi NE 4.6 mph - N/A   Overcast
2:33 AM 50.0 °F 50.0 °F 100% 30.20 in 1.2 mi ENE 5.8 mph - N/A   Overcast
2:48 AM 51.8 °F 50.0 °F 94% 30.20 in 1.0 mi ENE 3.5 mph - N/A   Mist
2:58 AM 51.8 °F 50.0 °F 94% 30.21 in 1.2 mi NE 4.6 mph - N/A   Mostly Cloudy
3:23 AM 51.8 °F 51.8 °F 100% 30.20 in 1.8 mi NE 3.5 mph - N/A   Overcast
3:38 AM 51.8 °F 51.8 °F 100% 30.19 in 1.0 mi NE 4.6 mph - N/A   Mist
3:48 AM 51.8 °F 51.8 °F 100% 30.19 in 0.8 mi NE 5.8 mph - N/A   Mist
3:53 AM 51.8 °F 51.8 °F 100% 30.19 in 0.5 mi NE 5.8 mph - N/A Fog Fog
3:58 AM 51.4 °F 51.3 °F 99% 30.20 in 0.5 mi ENE 5.8 mph - N/A Fog Fog
4:08 AM 51.8 °F 51.8 °F 100% 30.19 in 0.5 mi ENE 5.8 mph - N/A Fog Fog
4:28 AM 51.8 °F 51.8 °F 100% 30.18 in 0.5 mi ENE 5.8 mph - N/A Fog Fog
4:43 AM 51.8 °F 51.8 °F 100% 30.19 in 0.8 mi ENE 4.6 mph - N/A   Clear
4:55 AM 51.8 °F 51.8 °F 100% 30.19 in 1.0 mi East 5.8 mph - N/A   Mist
4:58 AM 51.8 °F 51.8 °F 100% 30.20 in 1.0 mi East 4.6 mph - N/A   Mist
5:03 AM 53.6 °F 51.8 °F 94% 30.19 in 0.8 mi ENE 3.5 mph - N/A   Mist
5:23 AM 53.6 °F 51.8 °F 94% 30.20 in 0.5 mi NE 3.5 mph - N/A Fog Fog
5:28 AM 53.6 °F 51.8 °F 94% 30.20 in 0.8 mi NNE 2.3 mph - N/A   Mist
5:48 AM 53.6 °F 53.6 °F 100% 30.20 in 0.8 mi North 2.3 mph - N/A   Mist
5:58 AM 53.1 °F 52.7 °F 99% 30.21 in 0.8 mi ENE 2.3 mph - N/A   Mist
6:03 AM 53.6 °F 51.8 °F 94% 30.20 in 0.5 mi East 3.5 mph - N/A Fog Fog
6:23 AM 53.6 °F 53.6 °F 100% 30.20 in 0.5 mi East 4.6 mph - N/A Fog Fog
6:28 AM 53.6 °F 53.6 °F 100% 30.20 in 0.2 mi East 5.8 mph - N/A Fog Fog
6:48 AM 53.6 °F 53.6 °F 100% 30.20 in 0.5 mi East 5.8 mph - N/A Fog Fog
6:58 AM 54.0 °F 54.0 °F 100% 30.21 in 0.5 mi East 6.9 mph - N/A Fog Fog
7:18 AM 55.4 °F 55.4 °F 100% 30.20 in 0.8 mi East 5.8 mph - N/A   Mist
7:23 AM 55.4 °F 55.4 °F 100% 30.20 in 0.8 mi East 5.8 mph - N/A   Mist
7:33 AM 55.4 °F 55.4 °F 100% 30.20 in 0.5 mi East 5.8 mph - N/A Fog Fog
7:58 AM 55.8 °F 55.6 °F 99% 30.21 in 0.5 mi East 4.6 mph - N/A Fog Fog
8:03 AM 55.4 °F 55.4 °F 100% 30.20 in 0.8 mi East 4.6 mph - N/A   Mist
8:08 AM 55.4 °F 55.4 °F 100% 30.20 in 0.5 mi ENE 4.6 mph - N/A Fog Fog
8:13 AM 55.4 °F 55.4 °F 100% 30.21 in 0.5 mi East 5.8 mph - N/A Fog Fog
8:14 AM 55.4 °F 55.4 °F 100% 30.21 in 0.5 mi East 4.6 mph - N/A Fog Fog
8:19 AM 57.2 °F 57.2 °F 100% 30.21 in 0.5 mi East 4.6 mph - N/A Fog Fog
8:58 AM 58.1 °F 58.1 °F 100% 30.21 in 0.5 mi ESE 6.9 mph - N/A Fog Fog
9:08 AM 59.0 °F 59.0 °F 100% 30.19 in 0.8 mi ESE 4.6 mph - N/A   Mist
9:18 AM 59.0 °F 59.0 °F 100% 30.19 in 0.8 mi ESE 4.6 mph - N/A   Partly Cloudy
9:23 AM 59.0 °F 59.0 °F 100% 30.19 in 1.0 mi ESE 5.8 mph - N/A   Clear
9:24 AM 59.0 °F 59.0 °F 100% 30.19 in 1.0 mi ESE 4.6 mph - N/A   Mist
9:29 AM 60.8 °F 60.8 °F 100% 30.19 in 1.0 mi ESE 4.6 mph - N/A   Partly Cloudy
9:34 AM 60.8 °F 60.8 °F 100% 30.19 in 1.0 mi ESE 8.1 mph - N/A   Mist
9:54 AM 60.8 °F 60.8 °F 100% 30.19 in 1.2 mi SE 9.2 mph - N/A   Scattered Clouds
9:58 AM 60.8 °F 60.8 °F 100% 30.20 in 1.2 mi ESE 8.1 mph - N/A   Mostly Cloudy
10:03 AM 62.6 °F 62.6 °F 100% 30.19 in 1.8 mi ESE 6.9 mph - N/A   Mostly Cloudy
10:08 AM 62.6 °F 62.6 °F 100% 30.19 in 2.0 mi ESE 5.8 mph - N/A   Mostly Cloudy
10:13 AM 62.6 °F 62.6 °F 100% 30.18 in 3.0 mi ESE 5.8 mph - N/A   Overcast
10:23 AM 62.6 °F 62.6 °F 100% 30.18 in 9.0 mi ESE 9.2 mph - N/A   Overcast
10:33 AM 64.4 °F 64.4 °F 100% 30.18 in 10.0 mi SE 4.6 mph - N/A   Overcast
10:43 AM 64.4 °F 64.4 °F 100% 30.17 in 10.0 mi SE 4.6 mph - N/A   Overcast
10:58 AM 65.1 °F 65.1 °F 100% 30.17 in 10.0 mi SE 6.9 mph - N/A   Overcast
11:03 AM 66.2 °F 66.2 °F 100% 30.16 in 10.0 mi SE 9.2 mph - N/A   Overcast
11:18 AM 68.0 °F 68.0 °F 100% 30.15 in 10.0 mi SE 6.9 mph - N/A   Mostly Cloudy
11:23 AM 68.0 °F 68.0 °F 100% 30.15 in 10.0 mi Variable 4.6 mph - N/A   Mostly Cloudy
11:58 AM 70.3 °F 64.9 °F 83% 30.14 in 10.0 mi Variable 2.3 mph - N/A   Mostly Cloudy
12:08 PM 71.6 °F 62.6 °F 73% 30.12 in 10.0 mi East 4.6 mph - N/A   Mostly Cloudy
12:58 PM 71.4 °F 53.1 °F 52% 30.11 in 10.0 mi NNE 4.6 mph - N/A   Mostly Cloudy
1:28 PM 73.4 °F 51.8 °F 47% 30.09 in 10.0 mi NNW 2.3 mph - N/A   Mostly Cloudy
1:58 PM 74.8 °F 51.8 °F 44% 30.09 in 10.0 mi Variable 2.3 mph - N/A   Partly Cloudy
2:58 PM 76.6 °F 54.1 °F 46% 30.09 in 10.0 mi SSW 8.1 mph - N/A   Scattered Clouds
3:58 PM 75.9 °F 56.7 °F 51% 30.11 in 10.0 mi South 6.9 mph - N/A   Scattered Clouds
4:58 PM 72.5 °F 59.2 °F 63% 30.11 in 10.0 mi South 4.6 mph - N/A   Clear
5:58 PM 69.8 °F 59.7 °F 70% 30.13 in 10.0 mi South 4.6 mph - N/A   Clear
6:58 PM 67.8 °F 61.7 °F 81% 30.14 in 10.0 mi SSE 5.8 mph - N/A   Clear
7:58 PM 66.6 °F 62.4 °F 86% 30.12 in 10.0 mi SSE 3.5 mph - N/A   Clear
8:58 PM 66.9 °F 63.3 °F 88% 30.13 in 10.0 mi SSE 4.6 mph - N/A   Clear
9:58 PM 66.7 °F 64.2 °F 92% 30.13 in 10.0 mi SSE 5.8 mph - N/A   Clear
10:18 PM 66.2 °F 64.4 °F 94% 30.12 in 10.0 mi SE 4.6 mph - N/A   Mostly Cloudy
10:32 PM 66.2 °F 64.4 °F 94% 30.12 in 10.0 mi SE 6.9 mph - N/A   Overcast
10:58 PM 67.3 °F 65.5 °F 94% 30.12 in 10.0 mi SSE 5.8 mph - N/A   Overcast
11:58 PM 68.0 °F 66.0 °F 93% 30.12 in 10.0 mi South 8.1 mph - N/A   Overcast